createdAt,value
2022-08-27T00:00:48.555Z,21.10
2022-08-27T00:03:16.780Z,21.14
2022-08-27T00:05:43.767Z,21.02
2022-08-27T00:08:12.757Z,21.04
2022-08-27T00:10:41.509Z,21.04
2022-08-27T00:13:08.601Z,21.03
2022-08-27T00:15:35.773Z,20.95
2022-08-27T00:18:03.335Z,20.98
2022-08-27T00:20:30.273Z,20.99
2022-08-27T00:22:57.038Z,20.93
2022-08-27T00:25:24.108Z,20.96
2022-08-27T00:27:51.711Z,20.94
2022-08-27T00:30:20.721Z,20.82
2022-08-27T00:32:47.894Z,20.81
2022-08-27T00:35:16.159Z,20.87
2022-08-27T00:37:43.736Z,20.81
2022-08-27T00:40:16.687Z,20.82
2022-08-27T00:42:46.020Z,20.84
2022-08-27T00:45:16.201Z,20.82
2022-08-27T00:47:47.258Z,20.81
2022-08-27T00:50:18.757Z,20.79
2022-08-27T00:52:57.739Z,20.80
2022-08-27T00:55:44.439Z,20.82
2022-08-27T00:58:17.739Z,20.80
2022-08-27T01:00:46.547Z,20.82
2022-08-27T01:03:14.565Z,20.76
2022-08-27T01:05:44.176Z,20.84
2022-08-27T01:08:19.170Z,20.75
2022-08-27T01:10:46.617Z,20.82
2022-08-27T01:13:17.335Z,20.81
2022-08-27T01:15:44.535Z,20.81
2022-08-27T01:18:13.576Z,20.76
2022-08-27T01:21:14.413Z,20.79
2022-08-27T01:23:50.815Z,20.82
2022-08-27T01:26:18.655Z,20.82
2022-08-27T01:28:45.905Z,20.77
2022-08-27T01:31:13.345Z,20.70
2022-08-27T01:33:40.608Z,20.69
2022-08-27T01:36:08.219Z,20.76
2022-08-27T01:38:35.167Z,20.73
2022-08-27T01:41:03.606Z,20.65
2022-08-27T01:43:31.773Z,20.62
2022-08-27T01:45:58.892Z,20.67
2022-08-27T01:48:25.881Z,20.65
2022-08-27T01:50:52.708Z,20.63
2022-08-27T01:53:22.882Z,20.59
2022-08-27T01:55:52.125Z,20.59
2022-08-27T01:58:21.222Z,20.54
2022-08-27T02:00:56.431Z,20.57
2022-08-27T02:03:24.776Z,20.50
2022-08-27T02:05:51.620Z,20.49
2022-08-27T02:08:18.969Z,20.56
2022-08-27T02:10:48.593Z,20.56
2022-08-27T02:13:16.601Z,20.47
2022-08-27T02:15:44.515Z,20.54
2022-08-27T02:18:12.267Z,20.52
2022-08-27T02:20:39.471Z,20.43
2022-08-27T02:23:06.382Z,20.48
2022-08-27T02:25:34.112Z,20.43
2022-08-27T02:28:01.920Z,20.43
2022-08-27T02:30:32.097Z,20.38
2022-08-27T02:33:05.481Z,20.34
2022-08-27T02:35:35.483Z,20.36
2022-08-27T02:38:02.941Z,20.36
2022-08-27T02:40:29.919Z,20.32
2022-08-27T02:42:56.712Z,20.31
2022-08-27T02:45:23.982Z,20.29
2022-08-27T02:47:50.769Z,20.27
2022-08-27T02:50:17.875Z,20.19
2022-08-27T02:52:46.385Z,20.25
2022-08-27T02:55:14.304Z,20.24
2022-08-27T02:57:45.020Z,20.22
2022-08-27T03:00:15.009Z,20.21
2022-08-27T03:02:42.060Z,20.12
2022-08-27T03:05:11.981Z,20.16
2022-08-27T03:07:38.901Z,20.19
2022-08-27T03:10:06.632Z,20.10
2022-08-27T03:12:36.361Z,20.16
2022-08-27T03:15:08.394Z,20.19
2022-08-27T03:17:54.237Z,20.18
2022-08-27T03:20:21.421Z,20.16
2022-08-27T03:22:49.159Z,20.18
2022-08-27T03:25:16.098Z,20.17
2022-08-27T03:27:42.871Z,20.16
2022-08-27T03:30:13.265Z,20.15
2022-08-27T03:32:40.142Z,20.09
2022-08-27T03:35:08.173Z,20.16
2022-08-27T03:37:35.547Z,20.14
2022-08-27T03:40:02.427Z,20.09
2022-08-27T03:42:29.313Z,20.12
2022-08-27T03:44:56.604Z,20.14
2022-08-27T03:47:23.893Z,20.16
2022-08-27T03:49:50.642Z,20.17
2022-08-27T03:52:17.719Z,20.15
2022-08-27T03:54:44.389Z,20.15
2022-08-27T03:57:11.837Z,20.13
2022-08-27T03:59:39.155Z,20.22
2022-08-27T04:02:05.994Z,20.23
2022-08-27T04:04:33.063Z,20.24
2022-08-27T04:07:00.152Z,20.23
2022-08-27T04:09:27.143Z,20.22
2022-08-27T04:11:54.279Z,20.24
2022-08-27T04:14:27.316Z,20.26
2022-08-27T04:16:56.669Z,20.27
2022-08-27T04:19:27.649Z,20.29
2022-08-27T04:22:02.453Z,20.24
2022-08-27T04:24:31.380Z,20.32
2022-08-27T04:26:59.951Z,20.33
2022-08-27T04:29:27.262Z,20.34
2022-08-27T04:31:54.729Z,20.35
2022-08-27T04:34:21.954Z,20.40
2022-08-27T04:36:48.822Z,20.44
2022-08-27T04:39:16.214Z,20.43
2022-08-27T04:41:43.215Z,20.50
2022-08-27T04:44:11.535Z,20.62
2022-08-27T04:46:40.772Z,20.63
2022-08-27T04:49:15.514Z,20.77
2022-08-27T04:51:43.302Z,20.87
2022-08-27T04:54:10.738Z,20.88
2022-08-27T04:56:38.294Z,20.89
2022-08-27T04:59:08.169Z,20.91
2022-08-27T05:01:36.184Z,20.96
2022-08-27T05:04:03.490Z,20.89
2022-08-27T05:06:30.696Z,20.93
2022-08-27T05:08:57.828Z,21.01
2022-08-27T05:11:27.189Z,21.03
2022-08-27T05:13:53.949Z,21.06
2022-08-27T05:16:22.972Z,21.06
2022-08-27T05:18:51.796Z,21.04
2022-08-27T05:21:22.989Z,20.98
2022-08-27T05:23:51.022Z,20.99
2022-08-27T05:26:18.645Z,20.96
2022-08-27T05:28:45.637Z,20.94
2022-08-27T05:31:14.320Z,20.87
2022-08-27T05:33:42.260Z,20.93
2022-08-27T05:36:26.329Z,20.93
2022-08-27T05:38:54.897Z,20.91
2022-08-27T05:41:25.755Z,20.79
2022-08-27T05:44:30.280Z,20.85
2022-08-27T05:46:56.043Z,20.87
2022-08-27T05:49:23.183Z,20.82
2022-08-27T05:51:50.173Z,20.94
2022-08-27T05:54:19.626Z,20.98
2022-08-27T05:56:50.128Z,21.02
2022-08-27T05:59:36.578Z,21.05
2022-08-27T06:02:06.328Z,21.06
2022-08-27T06:04:33.414Z,21.03
2022-08-27T06:07:00.150Z,21.13
2022-08-27T06:09:31.357Z,21.14
2022-08-27T06:12:00.214Z,21.16
2022-08-27T06:14:27.192Z,21.15
2022-08-27T06:16:54.220Z,21.16
2022-08-27T06:19:21.591Z,21.08
2022-08-27T06:22:00.727Z,21.05
2022-08-27T06:24:29.243Z,21.10
2022-08-27T06:26:57.527Z,21.17
2022-08-27T06:29:25.140Z,21.08
2022-08-27T06:31:53.043Z,21.14
2022-08-27T06:34:19.912Z,21.15
2022-08-27T06:36:46.671Z,21.14
2022-08-27T06:39:15.521Z,21.14
2022-08-27T06:41:44.186Z,21.15
2022-08-27T06:44:12.348Z,21.18
2022-08-27T06:46:39.720Z,21.23
2022-08-27T06:49:07.195Z,21.27
2022-08-27T06:51:36.312Z,21.28
2022-08-27T06:54:09.484Z,21.32
2022-08-27T06:56:36.448Z,21.35
2022-08-27T06:59:12.058Z,21.36
2022-08-27T07:01:41.832Z,21.37
2022-08-27T07:04:12.575Z,21.38
2022-08-27T07:06:41.016Z,21.38
2022-08-27T07:09:09.512Z,21.36
2022-08-27T07:11:36.720Z,21.36
2022-08-27T07:14:04.942Z,21.31
2022-08-27T07:16:31.968Z,21.37
2022-08-27T07:19:03.700Z,21.30
2022-08-27T07:21:32.328Z,21.32
2022-08-27T07:24:03.658Z,21.42
2022-08-27T07:26:33.015Z,21.44
2022-08-27T07:29:00.927Z,21.51
2022-08-27T07:31:28.250Z,21.58
2022-08-27T07:33:55.449Z,21.71
2022-08-27T07:36:23.143Z,21.82
2022-08-27T07:38:56.953Z,21.84
2022-08-27T07:41:31.225Z,22.00
2022-08-27T07:44:19.983Z,22.07
2022-08-27T07:46:49.326Z,22.15
2022-08-27T07:49:17.972Z,22.07
2022-08-27T07:51:45.779Z,22.22
2022-08-27T07:54:12.958Z,22.27
2022-08-27T07:56:39.825Z,22.30
2022-08-27T07:59:07.013Z,22.44
2022-08-27T08:01:34.387Z,22.50
2022-08-27T08:04:01.934Z,22.51
2022-08-27T08:06:28.757Z,22.50
2022-08-27T08:08:55.569Z,22.52
2022-08-27T08:11:22.578Z,22.51
2022-08-27T08:13:49.309Z,22.59
2022-08-27T08:16:16.267Z,22.62
2022-08-27T08:18:43.306Z,22.66
2022-08-27T08:21:13.732Z,22.64
2022-08-27T08:23:42.312Z,22.79
2022-08-27T08:26:12.142Z,22.86
2022-08-27T08:28:40.132Z,22.86
2022-08-27T08:31:07.837Z,22.96
2022-08-27T08:33:35.576Z,23.05
2022-08-27T08:36:14.970Z,23.21
2022-08-27T08:38:43.501Z,23.32
2022-08-27T08:41:38.017Z,23.44
2022-08-27T08:44:14.828Z,23.58
2022-08-27T08:46:55.761Z,23.68
2022-08-27T08:50:11.335Z,23.77
2022-08-27T08:52:49.786Z,23.92
2022-08-27T08:55:42.006Z,24.00
2022-08-27T08:58:25.977Z,24.14
2022-08-27T09:01:03.714Z,24.28
2022-08-27T09:03:35.522Z,24.37
2022-08-27T09:06:09.035Z,24.45
2022-08-27T09:08:42.549Z,24.55
2022-08-27T09:11:16.245Z,24.64
2022-08-27T09:13:53.372Z,24.66
2022-08-27T09:16:20.685Z,24.72
2022-08-27T09:18:52.512Z,24.73
2022-08-27T09:21:43.451Z,24.78
2022-08-27T09:24:35.594Z,24.85
2022-08-27T09:27:02.656Z,24.85
2022-08-27T09:29:30.252Z,24.82
2022-08-27T09:31:59.408Z,24.82
2022-08-27T09:34:34.640Z,24.77
2022-08-27T09:37:10.437Z,24.85
2022-08-27T09:40:06.197Z,24.94
2022-08-27T09:42:49.618Z,25.01
2022-08-27T09:45:25.930Z,25.20
2022-08-27T09:48:07.465Z,25.31
2022-08-27T09:50:50.761Z,25.40
2022-08-27T09:53:25.547Z,25.49
2022-08-27T09:55:58.404Z,25.58
2022-08-27T09:58:34.505Z,25.73
2022-08-27T10:01:19.620Z,25.88
2022-08-27T10:03:47.367Z,26.00
2022-08-27T10:06:14.209Z,26.11
2022-08-27T10:08:48.834Z,26.14
2022-08-27T10:11:34.810Z,26.25
2022-08-27T10:14:16.366Z,26.29
2022-08-27T10:17:10.600Z,26.36
2022-08-27T10:20:16.320Z,26.42
2022-08-27T10:22:52.132Z,26.62
2022-08-27T10:25:21.827Z,26.63
2022-08-27T10:28:05.075Z,26.75
2022-08-27T10:30:41.954Z,26.82
2022-08-27T10:33:15.063Z,26.88
2022-08-27T10:35:54.690Z,26.94
2022-08-27T10:38:43.811Z,26.94
2022-08-27T10:41:11.741Z,26.97
2022-08-27T10:43:47.794Z,27.06
2022-08-27T10:46:33.179Z,27.15
2022-08-27T10:49:18.360Z,27.28
2022-08-27T10:52:16.857Z,27.35
2022-08-27T10:54:46.734Z,27.44
2022-08-27T10:57:45.521Z,27.55
2022-08-27T11:00:16.773Z,27.56
2022-08-27T11:03:25.161Z,27.61
2022-08-27T11:05:56.066Z,27.63
2022-08-27T11:08:36.637Z,27.67
2022-08-27T11:11:57.122Z,27.74
2022-08-27T11:14:01.111Z,27.81
2022-08-27T11:16:37.230Z,27.86
2022-08-27T11:19:15.203Z,27.86
2022-08-27T11:22:05.784Z,27.95
2022-08-27T11:24:57.448Z,27.96
2022-08-27T11:27:27.412Z,27.97
2022-08-27T11:30:20.182Z,27.99
2022-08-27T11:32:55.799Z,28.00
2022-08-27T11:35:35.529Z,28.03
2022-08-27T11:38:35.849Z,28.09
2022-08-27T11:41:11.780Z,28.15
2022-08-27T11:43:39.219Z,28.19
2022-08-27T11:46:08.640Z,28.15
2022-08-27T11:48:41.926Z,28.20
2022-08-27T11:51:28.606Z,28.34
2022-08-27T11:54:01.938Z,28.40
2022-08-27T11:56:29.060Z,28.47
2022-08-27T11:58:56.791Z,28.54
2022-08-27T12:01:31.618Z,28.52
2022-08-27T12:04:25.324Z,28.62
2022-08-27T12:07:02.630Z,28.66
2022-08-27T12:09:42.873Z,28.69
2022-08-27T12:12:16.975Z,28.71
2022-08-27T12:15:03.785Z,28.77
2022-08-27T12:17:44.756Z,28.79
2022-08-27T12:20:14.458Z,28.85
2022-08-27T12:23:21.142Z,28.90
2022-08-27T12:25:56.658Z,28.93
2022-08-27T12:28:26.810Z,28.95
2022-08-27T12:30:55.031Z,28.96
2022-08-27T12:33:34.459Z,28.92
2022-08-27T12:36:27.741Z,28.98
2022-08-27T12:38:58.327Z,28.94
2022-08-27T12:41:32.122Z,28.98
2022-08-27T12:44:09.305Z,28.98
2022-08-27T12:46:45.768Z,28.99
2022-08-27T12:49:38.028Z,28.95
2022-08-27T12:52:18.343Z,28.95
2022-08-27T12:55:06.774Z,28.87
2022-08-27T12:58:02.377Z,28.90
2022-08-27T13:00:38.780Z,28.85
2022-08-27T13:03:26.177Z,28.79
2022-08-27T13:05:57.435Z,28.78
2022-08-27T13:08:30.104Z,28.69
2022-08-27T13:11:07.065Z,28.68
2022-08-27T13:13:34.202Z,28.77
2022-08-27T13:16:04.478Z,28.77
2022-08-27T13:18:31.647Z,28.77
2022-08-27T13:21:14.565Z,28.79
2022-08-27T13:23:49.286Z,28.84
2022-08-27T13:26:23.340Z,28.85
2022-08-27T13:28:51.909Z,28.87
2022-08-27T13:31:22.253Z,28.80
2022-08-27T13:33:49.725Z,28.84
2022-08-27T13:36:32.366Z,28.88
2022-08-27T13:39:02.149Z,28.83
2022-08-27T13:41:35.050Z,28.91
2022-08-27T13:44:19.104Z,28.87
2022-08-27T13:46:52.277Z,28.95
2022-08-27T13:49:24.479Z,28.97
2022-08-27T13:52:01.054Z,28.91
2022-08-27T13:54:29.283Z,29.05
2022-08-27T13:57:10.052Z,29.08
2022-08-27T13:59:42.953Z,29.12
2022-08-27T14:02:10.389Z,29.15
2022-08-27T14:05:03.807Z,29.18
2022-08-27T14:07:34.482Z,29.22
2022-08-27T14:10:25.579Z,29.24
2022-08-27T14:13:04.144Z,29.28
2022-08-27T14:15:31.280Z,29.30
2022-08-27T14:17:58.077Z,29.28
2022-08-27T14:20:25.843Z,29.33
2022-08-27T14:22:53.392Z,29.35
2022-08-27T14:25:21.494Z,29.33
2022-08-27T14:27:54.215Z,29.29
2022-08-27T14:30:25.282Z,29.20
2022-08-27T14:32:58.568Z,29.17
2022-08-27T14:35:26.590Z,29.11
2022-08-27T14:37:54.728Z,29.06
2022-08-27T14:40:22.249Z,28.99
2022-08-27T14:42:49.504Z,28.87
2022-08-27T14:45:17.874Z,28.88
2022-08-27T14:47:45.369Z,28.85
2022-08-27T14:50:14.067Z,28.74
2022-08-27T14:52:40.871Z,28.83
2022-08-27T14:55:10.902Z,28.84
2022-08-27T14:57:38.664Z,28.84
2022-08-27T15:00:07.881Z,28.85
2022-08-27T15:02:35.202Z,28.86
2022-08-27T15:05:03.432Z,28.87
2022-08-27T15:07:38.995Z,28.85
2022-08-27T15:10:09.243Z,28.68
2022-08-27T15:12:36.658Z,28.78
2022-08-27T15:15:04.671Z,28.74
2022-08-27T15:17:34.588Z,28.66
2022-08-27T15:20:09.129Z,28.57
2022-08-27T15:22:44.099Z,28.53
2022-08-27T15:25:11.867Z,28.37
2022-08-27T15:27:39.475Z,28.37
2022-08-27T15:30:10.077Z,28.30
2022-08-27T15:32:41.043Z,28.22
2022-08-27T15:35:12.410Z,28.18
2022-08-27T15:37:41.340Z,28.16
2022-08-27T15:40:09.269Z,28.05
2022-08-27T15:42:36.189Z,27.95
2022-08-27T15:45:03.979Z,27.93
2022-08-27T15:47:31.001Z,27.84
2022-08-27T15:49:57.817Z,27.80
2022-08-27T15:52:24.744Z,27.76
2022-08-27T15:54:51.791Z,27.64
2022-08-27T15:57:20.427Z,27.56
2022-08-27T15:59:47.920Z,27.56
2022-08-27T16:02:22.199Z,27.45
2022-08-27T16:04:50.097Z,27.44
2022-08-27T16:07:21.131Z,27.36
2022-08-27T16:09:48.297Z,27.31
2022-08-27T16:12:27.060Z,27.23
2022-08-27T16:14:55.691Z,27.16
2022-08-27T16:17:24.382Z,27.15
2022-08-27T16:19:51.282Z,27.09
2022-08-27T16:22:18.456Z,26.99
2022-08-27T16:24:45.566Z,26.96
2022-08-27T16:27:12.273Z,26.91
2022-08-27T16:29:39.529Z,26.92
2022-08-27T16:32:11.340Z,26.85
2022-08-27T16:34:39.591Z,26.83
2022-08-27T16:37:06.628Z,26.77
2022-08-27T16:39:37.390Z,26.71
2022-08-27T16:42:10.733Z,26.66
2022-08-27T16:44:38.423Z,26.55
2022-08-27T16:47:06.878Z,26.56
2022-08-27T16:49:52.608Z,26.51
2022-08-27T16:52:20.855Z,26.48
2022-08-27T16:54:48.020Z,26.42
2022-08-27T16:57:14.803Z,26.37
2022-08-27T16:59:41.486Z,26.31
2022-08-27T17:02:19.354Z,26.21
2022-08-27T17:05:07.301Z,26.22
2022-08-27T17:07:33.259Z,26.15
2022-08-27T17:10:05.095Z,26.08
2022-08-27T17:12:32.604Z,26.02
2022-08-27T17:15:00.827Z,25.95
2022-08-27T17:17:29.687Z,25.88
2022-08-27T17:19:56.753Z,25.82
2022-08-27T17:22:24.531Z,25.75
2022-08-27T17:24:51.297Z,25.67
2022-08-27T17:27:20.329Z,25.53
2022-08-27T17:29:47.249Z,25.54
2022-08-27T17:32:13.999Z,25.48
2022-08-27T17:34:40.658Z,25.42
2022-08-27T17:37:07.669Z,25.36
2022-08-27T17:39:34.307Z,25.25
2022-08-27T17:42:01.123Z,25.25
2022-08-27T17:44:31.930Z,25.17
2022-08-27T17:47:02.798Z,25.06
2022-08-27T17:49:31.191Z,25.08
2022-08-27T17:52:01.432Z,25.02
2022-08-27T17:54:44.286Z,24.91
2022-08-27T17:57:27.456Z,24.93
2022-08-27T17:59:55.664Z,24.79
2022-08-27T18:02:28.942Z,24.76
2022-08-27T18:04:56.840Z,24.68
2022-08-27T18:07:24.255Z,24.53
2022-08-27T18:09:51.230Z,24.54
2022-08-27T18:12:21.834Z,24.42
2022-08-27T18:14:58.272Z,24.43
2022-08-27T18:17:25.338Z,24.36
2022-08-27T18:19:52.165Z,24.25
2022-08-27T18:22:19.444Z,24.24
2022-08-27T18:24:46.470Z,24.20
2022-08-27T18:27:13.362Z,24.14
2022-08-27T18:29:40.825Z,24.06
2022-08-27T18:32:07.776Z,23.99
2022-08-27T18:34:34.503Z,24.00
2022-08-27T18:37:01.194Z,23.96
2022-08-27T18:39:29.137Z,23.94
2022-08-27T18:41:55.785Z,23.87
2022-08-27T18:44:22.467Z,23.86
2022-08-27T18:46:49.531Z,23.74
2022-08-27T18:49:16.316Z,23.77
2022-08-27T18:51:44.916Z,23.72
2022-08-27T18:54:14.063Z,23.64
2022-08-27T18:56:40.742Z,23.67
2022-08-27T18:59:07.450Z,23.59
2022-08-27T19:01:34.607Z,23.60
2022-08-27T19:04:03.378Z,23.51
2022-08-27T19:06:30.264Z,23.47
2022-08-27T19:08:57.548Z,23.51
2022-08-27T19:11:24.360Z,23.47
2022-08-27T19:13:51.100Z,23.44
2022-08-27T19:16:44.460Z,23.38
2022-08-27T19:19:13.681Z,23.29
2022-08-27T19:21:41.268Z,23.30
2022-08-27T19:24:08.645Z,23.24
2022-08-27T19:26:36.307Z,23.14
2022-08-27T19:29:04.592Z,23.19
2022-08-27T19:31:33.517Z,23.13
2022-08-27T19:34:00.424Z,23.03
2022-08-27T19:36:27.541Z,23.06
2022-08-27T19:38:55.375Z,23.02
2022-08-27T19:41:26.008Z,22.97
2022-08-27T19:43:54.897Z,22.92
2022-08-27T19:46:24.108Z,22.90
2022-08-27T19:48:51.334Z,22.87
2022-08-27T19:51:18.542Z,22.78
2022-08-27T19:53:45.670Z,22.83
2022-08-27T19:56:13.743Z,22.80
2022-08-27T19:58:42.798Z,22.70
2022-08-27T20:01:09.875Z,22.71
2022-08-27T20:03:39.308Z,22.70
2022-08-27T20:06:06.129Z,22.68
2022-08-27T20:08:33.559Z,22.66
2022-08-27T20:11:01.416Z,22.58
2022-08-27T20:13:32.932Z,22.60
2022-08-27T20:16:01.436Z,22.56
2022-08-27T20:18:28.413Z,22.51
2022-08-27T20:20:55.370Z,22.48
2022-08-27T20:23:22.424Z,22.45
2022-08-27T20:25:52.393Z,22.40
2022-08-27T20:28:38.730Z,22.30
2022-08-27T20:31:07.654Z,22.34
2022-08-27T20:33:34.388Z,22.34
2022-08-27T20:36:02.879Z,22.32
2022-08-27T20:38:30.167Z,22.28
2022-08-27T20:40:56.873Z,22.29
2022-08-27T20:43:23.502Z,22.26
2022-08-27T20:45:50.632Z,22.26
2022-08-27T20:48:17.331Z,22.24
2022-08-27T20:50:44.027Z,22.21
2022-08-27T20:53:11.281Z,22.17
2022-08-27T20:55:38.021Z,22.15
2022-08-27T20:58:23.118Z,21.99
2022-08-27T21:00:52.267Z,22.06
2022-08-27T21:03:19.320Z,22.04
2022-08-27T21:05:48.467Z,22.05
2022-08-27T21:08:18.265Z,22.04
2022-08-27T21:10:52.447Z,22.01
2022-08-27T21:13:20.669Z,22.03
2022-08-27T21:15:48.767Z,21.99
2022-08-27T21:18:21.433Z,21.99
2022-08-27T21:20:56.265Z,21.87
2022-08-27T21:23:23.354Z,21.91
2022-08-27T21:25:50.004Z,21.88
2022-08-27T21:28:16.774Z,21.89
2022-08-27T21:30:45.146Z,21.88
2022-08-27T21:33:11.832Z,21.82
2022-08-27T21:35:38.637Z,21.79
2022-08-27T21:38:05.606Z,21.71
2022-08-27T21:40:33.132Z,21.76
2022-08-27T21:43:01.817Z,21.71
2022-08-27T21:45:28.785Z,21.63
2022-08-27T21:47:55.687Z,21.66
2022-08-27T21:50:23.684Z,21.64
2022-08-27T21:52:50.803Z,21.59
2022-08-27T21:55:18.464Z,21.65
2022-08-27T21:57:45.156Z,21.58
2022-08-27T22:00:38.922Z,21.54
2022-08-27T22:03:10.286Z,21.59
2022-08-27T22:05:40.014Z,21.55
2022-08-27T22:08:08.915Z,21.53
2022-08-27T22:10:35.929Z,21.51
2022-08-27T22:13:03.322Z,21.51
2022-08-27T22:15:30.778Z,21.42
2022-08-27T22:17:58.323Z,21.48
2022-08-27T22:20:25.018Z,21.49
2022-08-27T22:22:52.393Z,21.53
2022-08-27T22:25:19.383Z,21.43
2022-08-27T22:27:46.046Z,21.45
2022-08-27T22:30:13.585Z,21.50
2022-08-27T22:32:40.408Z,21.46
2022-08-27T22:35:08.749Z,21.43
2022-08-27T22:37:36.603Z,21.41
2022-08-27T22:40:05.978Z,21.36
2022-08-27T22:42:32.748Z,21.37
2022-08-27T22:45:00.923Z,21.22
2022-08-27T22:47:27.901Z,21.30
2022-08-27T22:49:54.595Z,21.28
2022-08-27T22:52:28.202Z,21.25
2022-08-27T22:54:55.321Z,21.16
2022-08-27T22:57:22.072Z,21.19
2022-08-27T22:59:49.012Z,21.11
2022-08-27T23:02:16.135Z,21.14
2022-08-27T23:04:54.917Z,21.19
2022-08-27T23:07:24.599Z,21.16
2022-08-27T23:09:51.318Z,21.15
2022-08-27T23:12:19.775Z,21.15
2022-08-27T23:14:46.874Z,21.08
2022-08-27T23:17:13.921Z,21.13
2022-08-27T23:19:40.589Z,21.10
2022-08-27T23:22:08.774Z,21.10
2022-08-27T23:24:55.900Z,21.12
2022-08-27T23:27:28.781Z,21.04
2022-08-27T23:29:59.914Z,21.07
2022-08-27T23:32:27.042Z,21.08
2022-08-27T23:34:53.957Z,21.14
2022-08-27T23:37:21.497Z,21.09
2022-08-27T23:39:48.679Z,21.08
2022-08-27T23:42:18.529Z,21.06
2022-08-27T23:44:49.074Z,21.08
2022-08-27T23:47:17.696Z,21.06
2022-08-27T23:49:44.594Z,21.11
2022-08-27T23:52:12.494Z,21.09
2022-08-27T23:54:40.264Z,21.15
2022-08-27T23:57:07.004Z,21.14
2022-08-27T23:59:33.758Z,21.12
